Time;durP1;ratioP1;P1;durP2;ratioP2;P2;SDS_P1;SDS_P2;PMS_P1;PMS_P2;Temp;Humidity;BMP_temperature;BMP_pressure;BME280_temperature;BME280_humidity;BME280_pressure;Samples;Min_cycle;Max_cycle;Signal;HPM_P1;HPM_P2
2022/01/05 00:00:33;;;;;;;;;;;21.10;47.50;;;;;;6314503;28;20038;-44
2022/01/05 00:03:35;;;;;;;;;;;21.10;47.30;;;;;;6315685;28;20746;-42
2022/01/05 00:06:36;;;;;;;;;;;21.00;47.40;;;;;;6309570;28;19927;-44
2022/01/05 00:09:37;;;;;;;;;;;20.80;47.40;;;;;;6312210;28;19924;-46
2022/01/05 00:12:40;;;;;;;;;;;21.30;47.70;;;;;;6312095;28;19969;-47
2022/01/05 00:15:41;;;;;;;;;;;20.90;47.30;;;;;;6307531;28;19923;-46
2022/01/05 00:18:42;;;;;;;;;;;21.10;47.80;;;;;;6307935;28;20002;-42
2022/01/05 00:21:44;;;;;;;;;;;20.70;47.20;;;;;;6314762;28;19931;-43
2022/01/05 00:24:46;;;;;;;;;;;20.70;47.30;;;;;;6309459;28;19927;-43
2022/01/05 00:27:48;;;;;;;;;;;20.80;47.40;;;;;;6307139;28;20781;-42
2022/01/05 00:30:49;;;;;;;;;;;21.10;47.40;;;;;;6309103;28;19930;-44
2022/01/05 00:33:51;;;;;;;;;;;21.30;47.70;;;;;;6311570;28;19975;-42
2022/01/05 00:36:53;;;;;;;;;;;21.00;47.40;;;;;;6283224;28;19927;-42
2022/01/05 00:39:54;;;;;;;;;;;20.70;47.30;;;;;;6303685;28;20750;-42
2022/01/05 00:42:56;;;;;;;;;;;21.00;47.40;;;;;;6310277;28;20096;-46
2022/01/05 00:45:57;;;;;;;;;;;20.50;47.10;;;;;;6316011;28;19972;-44
2022/01/05 00:48:59;;;;;;;;;;;20.60;47.20;;;;;;6309726;28;19930;-46
2022/01/05 00:52:00;;;;;;;;;;;20.80;47.30;;;;;;6311394;28;19929;-43
2022/01/05 00:55:01;;;;;;;;;;;20.80;47.40;;;;;;6309533;28;20038;-44
2022/01/05 00:58:03;;;;;;;;;;;21.10;47.50;;;;;;6312885;28;19927;-47
2022/01/05 01:01:05;;;;;;;;;;;20.70;47.20;;;;;;6310554;28;20002;-44
2022/01/05 01:04:07;;;;;;;;;;;21.40;47.50;;;;;;6313611;28;20843;-43
2022/01/05 01:07:08;;;;;;;;;;;20.80;47.40;;;;;;6314467;28;19930;-44
2022/01/05 01:10:09;;;;;;;;;;;21.10;47.50;;;;;;6313644;28;20753;-45
2022/01/05 01:13:14;;;;;;;;;;;20.60;47.10;;;;;;6305564;28;20046;-44
2022/01/05 01:16:16;;;;;;;;;;;20.60;47.10;;;;;;6312373;28;19924;-45
2022/01/05 01:19:17;;;;;;;;;;;20.70;47.20;;;;;;6314236;28;19928;-44
2022/01/05 01:22:18;;;;;;;;;;;20.60;47.20;;;;;;6314187;28;19958;-45
2022/01/05 01:25:20;;;;;;;;;;;20.60;47.10;;;;;;6313096;28;20619;-43
2022/01/05 01:28:24;;;;;;;;;;;20.60;47.10;;;;;;6318919;28;20003;-44
2022/01/05 01:31:25;;;;;;;;;;;20.70;47.10;;;;;;6318355;28;20368;-43
2022/01/05 01:34:27;;;;;;;;;;;21.10;47.10;;;;;;6294228;28;20005;-42
2022/01/05 01:37:28;;;;;;;;;;;21.10;47.50;;;;;;6320542;28;20049;-45
2022/01/05 01:40:29;;;;;;;;;;;20.60;47.10;;;;;;6313206;28;20480;-45
2022/01/05 01:43:31;;;;;;;;;;;21.00;47.30;;;;;;6317647;28;19967;-42
2022/01/05 01:46:33;;;;;;;;;;;20.70;47.20;;;;;;6309015;28;19934;-42
2022/01/05 01:49:34;;;;;;;;;;;20.90;47.30;;;;;;6316347;28;19923;-49
2022/01/05 01:52:36;;;;;;;;;;;20.80;47.40;;;;;;6312549;28;21230;-45
2022/01/05 01:55:38;;;;;;;;;;;20.50;47.10;;;;;;6308305;28;19927;-41
2022/01/05 01:58:39;;;;;;;;;;;20.60;47.10;;;;;;6320722;28;19997;-44
2022/01/05 02:01:41;;;;;;;;;;;20.80;47.20;;;;;;6309143;28;19966;-44
2022/01/05 02:04:43;;;;;;;;;;;20.90;47.20;;;;;;6315533;28;20704;-45
2022/01/05 02:07:44;;;;;;;;;;;20.50;47.10;;;;;;6312221;28;19967;-43
2022/01/05 02:10:46;;;;;;;;;;;20.60;47.20;;;;;;6313170;28;19959;-45
2022/01/05 02:13:48;;;;;;;;;;;21.10;47.20;;;;;;6298091;28;20035;-41
2022/01/05 02:16:49;;;;;;;;;;;21.20;47.40;;;;;;6307524;28;20478;-44
2022/01/05 02:19:51;;;;;;;;;;;20.70;47.20;;;;;;6293290;28;20120;-42
2022/01/05 02:22:53;;;;;;;;;;;21.00;47.30;;;;;;6307071;28;20400;-41
2022/01/05 02:25:54;;;;;;;;;;;20.80;47.10;;;;;;6295933;28;20722;-42
2022/01/05 02:28:56;;;;;;;;;;;20.50;47.00;;;;;;6311273;28;20374;-42
2022/01/05 02:32:00;;;;;;;;;;;20.70;47.00;;;;;;6290271;28;20014;-42
2022/01/05 02:35:01;;;;;;;;;;;20.80;47.10;;;;;;6310133;28;19963;-42
2022/01/05 02:38:04;;;;;;;;;;;20.50;47.00;;;;;;6313718;28;20346;-42
2022/01/05 02:41:07;;;;;;;;;;;20.40;47.00;;;;;;6314560;28;20481;-43
2022/01/05 02:44:08;;;;;;;;;;;20.80;47.10;;;;;;6302812;28;20234;-42
2022/01/05 02:47:09;;;;;;;;;;;20.20;46.90;;;;;;6307244;28;20410;-41
2022/01/05 02:50:11;;;;;;;;;;;20.90;47.30;;;;;;6303508;28;19959;-42
2022/01/05 02:53:14;;;;;;;;;;;20.80;47.10;;;;;;6307366;28;20364;-42
2022/01/05 02:56:15;;;;;;;;;;;20.80;47.20;;;;;;6292719;28;20018;-42
2022/01/05 02:59:16;;;;;;;;;;;20.70;47.10;;;;;;6309078;28;20155;-42
2022/01/05 03:02:18;;;;;;;;;;;20.60;47.00;;;;;;6304983;28;20046;-43
2022/01/05 03:05:20;;;;;;;;;;;20.80;47.10;;;;;;6307341;28;19979;-41
2022/01/05 03:08:22;;;;;;;;;;;20.50;47.00;;;;;;6310389;28;19971;-42
2022/01/05 03:11:23;;;;;;;;;;;20.40;46.90;;;;;;6290203;28;19927;-41
2022/01/05 03:14:24;;;;;;;;;;;20.80;47.20;;;;;;6314123;28;20325;-42
2022/01/05 03:17:26;;;;;;;;;;;20.40;46.90;;;;;;6312687;28;19954;-43
2022/01/05 03:20:29;;;;;;;;;;;20.50;47.00;;;;;;6309996;28;19969;-42
2022/01/05 03:23:31;;;;;;;;;;;20.50;47.00;;;;;;6312859;28;19958;-42
2022/01/05 03:26:32;;;;;;;;;;;20.80;47.10;;;;;;6305264;28;19971;-43
2022/01/05 03:29:34;;;;;;;;;;;20.70;47.00;;;;;;6313247;28;19923;-44
2022/01/05 03:32:46;;;;;;;;;;;20.40;46.90;;;;;;6313800;28;20654;-42
2022/01/05 03:35:48;;;;;;;;;;;20.40;46.90;;;;;;6320092;28;19966;-46
2022/01/05 03:38:50;;;;;;;;;;;20.30;46.80;;;;;;6315646;28;19923;-41
2022/01/05 03:41:51;;;;;;;;;;;20.20;46.80;;;;;;6304893;28;19924;-43
2022/01/05 03:44:53;;;;;;;;;;;20.60;47.00;;;;;;6299215;28;20232;-43
2022/01/05 03:47:54;;;;;;;;;;;20.40;46.90;;;;;;6306727;28;19934;-41
2022/01/05 03:50:55;;;;;;;;;;;20.40;46.90;;;;;;6303375;28;19939;-44
2022/01/05 03:53:57;;;;;;;;;;;20.40;46.90;;;;;;6308815;28;20644;-43
2022/01/05 03:56:59;;;;;;;;;;;20.30;46.90;;;;;;6301951;28;20224;-42
2022/01/05 04:00:01;;;;;;;;;;;20.50;46.90;;;;;;6296281;28;20454;-43
2022/01/05 04:03:02;;;;;;;;;;;20.60;46.90;;;;;;6310918;28;20441;-42
2022/01/05 04:06:05;;;;;;;;;;;20.20;46.90;;;;;;6307071;28;19951;-43
2022/01/05 04:09:07;;;;;;;;;;;20.60;47.00;;;;;;6292212;28;20498;-41
2022/01/05 04:12:09;;;;;;;;;;;20.60;47.00;;;;;;6303810;28;20493;-42
2022/01/05 04:15:10;;;;;;;;;;;20.30;46.80;;;;;;6307680;28;19956;-42
2022/01/05 04:18:11;;;;;;;;;;;20.50;46.90;;;;;;6315860;28;19930;-47
2022/01/05 04:21:13;;;;;;;;;;;20.30;46.90;;;;;;6321386;28;20788;-43
2022/01/05 04:24:14;;;;;;;;;;;20.30;46.90;;;;;;6312029;28;20454;-44
2022/01/05 04:27:16;;;;;;;;;;;20.70;47.00;;;;;;6310797;28;19924;-42
2022/01/05 04:30:18;;;;;;;;;;;20.50;46.90;;;;;;6313322;28;19959;-43
2022/01/05 04:33:19;;;;;;;;;;;20.70;46.50;;;;;;6317154;28;20534;-46
2022/01/05 04:36:41;;;;;;;;;;;19.90;46.30;;;;;;6296878;28;19935;-45
2022/01/05 04:39:42;;;;;;;;;;;20.20;46.80;;;;;;6315521;28;20732;-46
2022/01/05 04:42:44;;;;;;;;;;;20.10;46.70;;;;;;6310293;28;19932;-45
2022/01/05 04:45:45;;;;;;;;;;;20.20;46.70;;;;;;6309007;28;19931;-44
2022/01/05 04:48:47;;;;;;;;;;;20.30;46.70;;;;;;6315720;28;19923;-44
2022/01/05 04:51:48;;;;;;;;;;;20.60;46.90;;;;;;6308722;28;19923;-42
2022/01/05 04:54:50;;;;;;;;;;;20.20;46.50;;;;;;6307287;28;20026;-43
2022/01/05 04:57:52;;;;;;;;;;;20.30;46.60;;;;;;6305972;28;19923;-42
2022/01/05 05:00:53;;;;;;;;;;;20.70;46.90;;;;;;6311563;28;20054;-43
2022/01/05 05:03:55;;;;;;;;;;;20.40;46.60;;;;;;6298565;28;20042;-41
2022/01/05 05:06:56;;;;;;;;;;;20.50;46.80;;;;;;6308946;28;20050;-42
2022/01/05 05:09:58;;;;;;;;;;;20.30;46.50;;;;;;6283147;28;19993;-42
2022/01/05 05:13:06;;;;;;;;;;;20.20;46.60;;;;;;6301488;28;20390;-47
2022/01/05 05:16:07;;;;;;;;;;;20.50;46.70;;;;;;6300685;28;20438;-42
2022/01/05 05:19:08;;;;;;;;;;;20.30;46.60;;;;;;6303170;28;19967;-42
2022/01/05 05:22:10;;;;;;;;;;;20.20;46.60;;;;;;6278553;28;20022;-42
2022/01/05 05:25:11;;;;;;;;;;;20.40;46.70;;;;;;6305730;28;19975;-42
2022/01/05 05:28:13;;;;;;;;;;;20.60;46.70;;;;;;6304756;28;20014;-43
2022/01/05 05:31:16;;;;;;;;;;;20.80;46.80;;;;;;6301608;28;20062;-43
2022/01/05 05:34:18;;;;;;;;;;;20.60;46.70;;;;;;6304992;28;20300;-43
2022/01/05 05:37:19;;;;;;;;;;;20.20;46.70;;;;;;6308498;28;19927;-42
2022/01/05 05:40:21;;;;;;;;;;;20.30;46.70;;;;;;6303948;28;20158;-43
2022/01/05 05:43:22;;;;;;;;;;;20.10;46.60;;;;;;6294159;28;19970;-44
2022/01/05 05:46:24;;;;;;;;;;;20.60;46.90;;;;;;6297181;28;19935;-44
2022/01/05 05:49:25;;;;;;;;;;;20.10;46.60;;;;;;6311826;28;20550;-41
2022/01/05 05:52:26;;;;;;;;;;;20.60;46.90;;;;;;6305299;28;19978;-44
2022/01/05 05:55:28;;;;;;;;;;;20.60;46.80;;;;;;6302278;27;20656;-43
2022/01/05 05:58:30;;;;;;;;;;;20.30;46.60;;;;;;6309652;28;20038;-44
2022/01/05 06:01:32;;;;;;;;;;;20.60;46.50;;;;;;6303201;28;20022;-43
2022/01/05 06:04:33;;;;;;;;;;;20.10;46.50;;;;;;6310625;28;19950;-42
2022/01/05 06:07:35;;;;;;;;;;;20.00;46.40;;;;;;6312548;28;19926;-43
2022/01/05 06:10:38;;;;;;;;;;;20.70;46.70;;;;;;6307958;28;19931;-44
2022/01/05 06:13:39;;;;;;;;;;;20.20;46.50;;;;;;6307487;28;19951;-42
2022/01/05 06:16:43;;;;;;;;;;;20.20;46.50;;;;;;6305987;28;19930;-45
2022/01/05 06:19:44;;;;;;;;;;;20.10;46.40;;;;;;6302044;28;19928;-45
2022/01/05 06:22:45;;;;;;;;;;;20.50;46.70;;;;;;6297133;28;20046;-43
2022/01/05 06:25:47;;;;;;;;;;;20.10;46.50;;;;;;6292342;28;20034;-44
2022/01/05 06:28:49;;;;;;;;;;;20.40;46.50;;;;;;6300317;28;20449;-43
2022/01/05 06:31:50;;;;;;;;;;;20.70;46.60;;;;;;6295650;28;20787;-43
2022/01/05 06:34:51;;;;;;;;;;;20.50;46.60;;;;;;6289986;28;20993;-42
2022/01/05 06:37:53;;;;;;;;;;;20.10;46.40;;;;;;6300930;28;20725;-43
2022/01/05 06:40:57;;;;;;;;;;;20.40;46.60;;;;;;6300427;28;19928;-44
2022/01/05 06:43:58;;;;;;;;;;;20.10;46.30;;;;;;6295009;28;19923;-44
2022/01/05 06:46:59;;;;;;;;;;;20.20;46.40;;;;;;6307929;28;20457;-42
2022/01/05 06:50:01;;;;;;;;;;;20.20;46.20;;;;;;6299920;28;19927;-42
2022/01/05 06:53:02;;;;;;;;;;;20.30;46.30;;;;;;6299032;28;19924;-44
2022/01/05 06:56:05;;;;;;;;;;;20.20;46.00;;;;;;6275140;28;19994;-42
2022/01/05 06:59:06;;;;;;;;;;;20.60;46.10;;;;;;6294825;28;19932;-42
2022/01/05 07:02:08;;;;;;;;;;;21.00;46.30;;;;;;6278337;28;19924;-46
2022/01/05 07:05:10;;;;;;;;;;;20.80;46.00;;;;;;6283713;28;19924;-43
2022/01/05 07:08:11;;;;;;;;;;;20.50;45.70;;;;;;6285708;28;21467;-43
2022/01/05 07:11:13;;;;;;;;;;;20.60;45.80;;;;;;6285242;28;20052;-43
2022/01/05 07:14:14;;;;;;;;;;;20.90;45.80;;;;;;6284164;28;19920;-43
2022/01/05 07:17:16;;;;;;;;;;;20.70;45.60;;;;;;6282549;28;19974;-43
2022/01/05 07:20:22;;;;;;;;;;;21.30;45.80;;;;;;6260130;28;20037;-44
2022/01/05 07:23:23;;;;;;;;;;;20.60;45.30;;;;;;6253769;28;19928;-44
2022/01/05 07:26:25;;;;;;;;;;;20.60;45.30;;;;;;6275485;28;21017;-45
2022/01/05 07:29:27;;;;;;;;;;;20.70;45.20;;;;;;6275474;28;19973;-44
2022/01/05 07:32:29;;;;;;;;;;;20.90;44.70;;;;;;6275926;28;19946;-42
2022/01/05 07:35:30;;;;;;;;;;;21.10;45.00;;;;;;6281656;28;19967;-45
2022/01/05 07:38:31;;;;;;;;;;;21.10;45.20;;;;;;6282409;28;20034;-47
2022/01/05 07:41:34;;;;;;;;;;;20.70;45.00;;;;;;6269014;28;21110;-45
2022/01/05 07:44:35;;;;;;;;;;;21.10;45.00;;;;;;6252150;28;19928;-43
2022/01/05 07:47:37;;;;;;;;;;;20.80;45.00;;;;;;6242694;28;19934;-42
2022/01/05 07:50:38;;;;;;;;;;;20.80;44.70;;;;;;6256655;28;19927;-42
2022/01/05 07:53:40;;;;;;;;;;;21.80;45.10;;;;;;6245719;28;19986;-43
2022/01/05 07:56:42;;;;;;;;;;;21.60;45.00;;;;;;6228726;28;20273;-42
2022/01/05 07:59:43;;;;;;;;;;;21.30;44.70;;;;;;6226667;28;19934;-44
2022/01/05 08:02:45;;;;;;;;;;;20.90;44.60;;;;;;6243899;28;19927;-42
2022/01/05 08:05:47;;;;;;;;;;;21.40;44.80;;;;;;6240353;28;19978;-47
2022/01/05 08:08:48;;;;;;;;;;;21.00;44.50;;;;;;6232534;28;20897;-42
2022/01/05 08:11:50;;;;;;;;;;;21.20;44.40;;;;;;6233785;28;19935;-43
2022/01/05 08:14:52;;;;;;;;;;;21.50;44.50;;;;;;6225056;28;19974;-41
2022/01/05 08:17:53;;;;;;;;;;;21.30;44.30;;;;;;6238049;28;19974;-43
2022/01/05 08:20:55;;;;;;;;;;;21.40;44.40;;;;;;6208504;28;20821;-41
2022/01/05 08:23:56;;;;;;;;;;;21.30;44.20;;;;;;6230988;28;19927;-42
2022/01/05 08:26:58;;;;;;;;;;;21.30;44.20;;;;;;6226861;28;19935;-42
2022/01/05 08:30:04;;;;;;;;;;;21.70;44.30;;;;;;6226556;28;19934;-41
2022/01/05 08:33:06;;;;;;;;;;;21.60;44.20;;;;;;6214637;28;20061;-43
2022/01/05 08:36:08;;;;;;;;;;;21.40;44.20;;;;;;6234503;28;20002;-42
2022/01/05 08:39:09;;;;;;;;;;;21.90;44.10;;;;;;6219170;28;19935;-41
2022/01/05 08:42:11;;;;;;;;;;;21.50;44.00;;;;;;6234558;28;19928;-41
2022/01/05 08:45:14;;;;;;;;;;;21.30;43.70;;;;;;6224284;28;19934;-43
2022/01/05 08:48:16;;;;;;;;;;;21.40;43.60;;;;;;6232425;28;19927;-41
2022/01/05 08:51:17;;;;;;;;;;;21.50;43.60;;;;;;6245503;28;19932;-41
2022/01/05 08:54:18;;;;;;;;;;;21.80;43.70;;;;;;6216366;28;19931;-41
2022/01/05 08:57:21;;;;;;;;;;;22.00;43.70;;;;;;6211301;28;19928;-41
2022/01/05 09:00:22;;;;;;;;;;;22.20;43.80;;;;;;6216099;28;20012;-40
2022/01/05 09:03:24;;;;;;;;;;;21.50;43.30;;;;;;6227200;28;19984;-41
2022/01/05 09:06:26;;;;;;;;;;;21.60;43.30;;;;;;6212089;28;20009;-40
2022/01/05 09:09:27;;;;;;;;;;;22.30;43.70;;;;;;6223834;28;20601;-41
2022/01/05 09:12:29;;;;;;;;;;;22.00;43.40;;;;;;6235987;28;19928;-43
2022/01/05 09:15:32;;;;;;;;;;;21.90;43.30;;;;;;6230404;28;19988;-42
2022/01/05 09:18:33;;;;;;;;;;;22.30;43.50;;;;;;6229989;28;19928;-41
2022/01/05 09:21:35;;;;;;;;;;;22.30;43.40;;;;;;6229124;27;19935;-41
2022/01/05 09:24:38;;;;;;;;;;;22.40;43.80;;;;;;6235452;28;21762;-43
2022/01/05 09:27:40;;;;;;;;;;;22.50;43.60;;;;;;6205311;28;20008;-43
2022/01/05 09:30:45;;;;;;;;;;;21.90;43.10;;;;;;6227660;28;19935;-42
2022/01/05 09:33:47;;;;;;;;;;;22.30;43.30;;;;;;6225480;28;19928;-41
2022/01/05 09:36:52;;;;;;;;;;;22.30;43.20;;;;;;6224200;28;19955;-41
2022/01/05 09:43:10;;;;;;;;;;;22.50;43.20;;;;;;6207484;28;19936;-44
2022/01/05 09:46:17;;;;;;;;;;;22.10;42.90;;;;;;6218638;28;19935;-41
2022/01/05 09:49:21;;;;;;;;;;;22.60;43.10;;;;;;6216492;28;19966;-41
2022/01/05 09:52:23;;;;;;;;;;;22.10;43.00;;;;;;6222394;28;19964;-42
2022/01/05 09:55:24;;;;;;;;;;;22.40;43.00;;;;;;6232709;28;19928;-43
2022/01/05 09:58:27;;;;;;;;;;;22.50;43.10;;;;;;6244719;28;19928;-41
2022/01/05 10:01:30;;;;;;;;;;;22.50;43.00;;;;;;6228135;28;19928;-41
2022/01/05 10:04:32;;;;;;;;;;;22.40;43.00;;;;;;6232927;28;20054;-42
2022/01/05 10:07:34;;;;;;;;;;;22.30;42.90;;;;;;6225783;28;20116;-41
2022/01/05 10:10:36;;;;;;;;;;;22.30;43.00;;;;;;6231098;28;21272;-43
2022/01/05 10:13:38;;;;;;;;;;;22.80;43.10;;;;;;6238894;28;20005;-41
2022/01/05 10:16:39;;;;;;;;;;;22.30;42.80;;;;;;6227480;28;20911;-41
2022/01/05 10:19:41;;;;;;;;;;;22.50;42.80;;;;;;6209516;28;19934;-43
2022/01/05 10:22:44;;;;;;;;;;;22.40;42.80;;;;;;6221364;28;20978;-41
2022/01/05 10:25:45;;;;;;;;;;;22.50;42.70;;;;;;6225364;28;19934;-41
2022/01/05 10:28:47;;;;;;;;;;;22.50;42.80;;;;;;6232941;28;20205;-42
2022/01/05 10:31:51;;;;;;;;;;;22.60;42.80;;;;;;6205810;28;20857;-41
2022/01/05 10:35:01;;;;;;;;;;;22.50;42.70;;;;;;6223059;28;19928;-41
2022/01/05 10:38:04;;;;;;;;;;;22.50;42.70;;;;;;6226454;28;20032;-41
2022/01/05 10:41:19;;;;;;;;;;;22.70;42.80;;;;;;6245705;28;19971;-41
2022/01/05 10:44:21;;;;;;;;;;;22.60;42.70;;;;;;6238107;28;19939;-41
2022/01/05 10:47:22;;;;;;;;;;;22.60;42.70;;;;;;6241956;28;20963;-44
2022/01/05 10:50:24;;;;;;;;;;;22.80;42.70;;;;;;6250339;28;19934;-41
2022/01/05 10:53:25;;;;;;;;;;;22.80;42.70;;;;;;6240680;28;19961;-40
2022/01/05 10:56:26;;;;;;;;;;;22.60;42.60;;;;;;6247922;28;20039;-40
2022/01/05 10:59:34;;;;;;;;;;;23.00;42.70;;;;;;6238142;28;19989;-44
2022/01/05 11:02:38;;;;;;;;;;;22.80;42.60;;;;;;6221734;28;21057;-44
2022/01/05 11:05:40;;;;;;;;;;;22.90;42.90;;;;;;6230263;28;19928;-43
2022/01/05 11:08:47;;;;;;;;;;;23.00;42.70;;;;;;6240186;28;20042;-45
2022/01/05 11:11:49;;;;;;;;;;;22.70;42.50;;;;;;6237007;28;19928;-42
2022/01/05 11:14:51;;;;;;;;;;;22.60;42.50;;;;;;6246191;28;21228;-41
2022/01/05 11:18:09;;;;;;;;;;;23.20;42.80;;;;;;6242172;28;19934;-41
2022/01/05 11:21:11;;;;;;;;;;;23.10;42.70;;;;;;6235685;28;19996;-43
2022/01/05 11:24:12;;;;;;;;;;;22.70;42.70;;;;;;6248614;28;19931;-41
2022/01/05 11:27:15;;;;;;;;;;;22.90;42.70;;;;;;6254887;28;19995;-41
2022/01/05 11:30:17;;;;;;;;;;;23.10;42.80;;;;;;6224749;28;20053;-43
2022/01/05 11:33:19;;;;;;;;;;;23.40;43.20;;;;;;6239208;28;19927;-46
2022/01/05 11:36:20;;;;;;;;;;;22.50;42.50;;;;;;6247798;28;19927;-41
2022/01/05 11:39:41;;;;;;;;;;;23.00;42.80;;;;;;6251283;28;19934;-41
2022/01/05 11:42:45;;;;;;;;;;;22.70;42.20;;;;;;6259947;28;19967;-42
2022/01/05 11:45:47;;;;;;;;;;;22.80;42.70;;;;;;6266095;28;19934;-43
2022/01/05 11:48:57;;;;;;;;;;;22.80;42.90;;;;;;6254437;28;19973;-41
2022/01/05 11:51:59;;;;;;;;;;;22.70;42.60;;;;;;6260372;28;20000;-41
2022/01/05 11:55:02;;;;;;;;;;;22.30;42.50;;;;;;6257716;28;19953;-42
2022/01/05 11:58:12;;;;;;;;;;;22.80;42.70;;;;;;6258043;28;19968;-44
2022/01/05 12:01:28;;;;;;;;;;;22.60;42.60;;;;;;6236018;28;20074;-41
2022/01/05 12:04:31;;;;;;;;;;;22.70;42.60;;;;;;6255497;28;19940;-42
2022/01/05 12:07:35;;;;;;;;;;;22.80;42.70;;;;;;6247669;28;19949;-41
2022/01/05 12:10:46;;;;;;;;;;;22.60;42.50;;;;;;6255195;28;19932;-41
2022/01/05 12:13:47;;;;;;;;;;;22.50;42.70;;;;;;6251161;28;21029;-41
2022/01/05 12:16:59;;;;;;;;;;;22.60;42.50;;;;;;6249792;28;19934;-42
2022/01/05 12:20:02;;;;;;;;;;;22.80;42.60;;;;;;6250462;28;19935;-41
2022/01/05 12:23:13;;;;;;;;;;;23.00;42.70;;;;;;6233717;28;19934;-43
2022/01/05 12:26:15;;;;;;;;;;;22.70;42.60;;;;;;6253409;28;19928;-43
2022/01/05 12:29:29;;;;;;;;;;;22.50;42.50;;;;;;6246269;27;19942;-42
2022/01/05 12:32:31;;;;;;;;;;;23.00;42.80;;;;;;6217091;28;20057;-43
2022/01/05 12:35:47;;;;;;;;;;;22.80;42.70;;;;;;6242034;28;20856;-41
2022/01/05 12:38:54;;;;;;;;;;;22.50;42.60;;;;;;6253283;28;19927;-47
2022/01/05 12:42:15;;;;;;;;;;;23.10;42.80;;;;;;6245851;28;21591;-44
2022/01/05 12:45:31;;;;;;;;;;;22.60;42.60;;;;;;6215762;28;19934;-42
2022/01/05 12:48:48;;;;;;;;;;;22.90;42.80;;;;;;6227978;28;20809;-43
2022/01/05 12:51:52;;;;;;;;;;;22.60;42.60;;;;;;6233643;28;20859;-44
2022/01/05 12:55:03;;;;;;;;;;;22.50;42.50;;;;;;6233508;28;19928;-45
2022/01/05 12:58:04;;;;;;;;;;;23.00;43.00;;;;;;6226926;28;20057;-41
2022/01/05 13:01:11;;;;;;;;;;;23.00;43.40;;;;;;6210901;28;19973;-43
2022/01/05 13:04:13;;;;;;;;;;;22.60;42.60;;;;;;6209842;28;20046;-42
2022/01/05 13:07:15;;;;;;;;;;;22.90;42.80;;;;;;6193462;28;19986;-42
2022/01/05 13:10:18;;;;;;;;;;;22.70;43.20;;;;;;6225076;28;20911;-43
2022/01/05 13:13:27;;;;;;;;;;;22.90;42.60;;;;;;6234845;28;19927;-42
2022/01/05 13:16:28;;;;;;;;;;;22.80;42.50;;;;;;6224176;28;19939;-42
2022/01/05 13:19:33;;;;;;;;;;;22.50;42.30;;;;;;6226536;28;20819;-41
2022/01/05 13:22:37;;;;;;;;;;;22.90;42.40;;;;;;6219289;28;20058;-41
2022/01/05 13:25:39;;;;;;;;;;;23.10;42.50;;;;;;6233235;28;19935;-42
2022/01/05 13:28:40;;;;;;;;;;;22.70;42.20;;;;;;6233284;28;20051;-43
2022/01/05 13:31:52;;;;;;;;;;;23.00;42.40;;;;;;6229351;28;20311;-42
2022/01/05 13:35:02;;;;;;;;;;;22.30;42.00;;;;;;6228867;28;20547;-42
2022/01/05 13:38:04;;;;;;;;;;;22.80;42.20;;;;;;6225671;28;19928;-43
2022/01/05 13:41:08;;;;;;;;;;;22.90;42.30;;;;;;6225387;28;19951;-42
2022/01/05 13:44:09;;;;;;;;;;;22.90;42.20;;;;;;6227549;28;20836;-43
2022/01/05 13:47:13;;;;;;;;;;;23.20;42.40;;;;;;6238339;28;19935;-42
2022/01/05 13:50:18;;;;;;;;;;;23.10;42.20;;;;;;6238836;28;19970;-43
2022/01/05 13:53:22;;;;;;;;;;;22.70;42.00;;;;;;6239346;28;19928;-42
2022/01/05 13:56:26;;;;;;;;;;;23.20;42.30;;;;;;6238122;28;19970;-42
2022/01/05 13:59:39;;;;;;;;;;;22.70;42.00;;;;;;6225863;28;19928;-45
2022/01/05 14:02:41;;;;;;;;;;;22.90;42.10;;;;;;6214947;28;21232;-45
2022/01/05 14:05:43;;;;;;;;;;;23.10;42.20;;;;;;6238175;28;20050;-43
2022/01/05 14:08:45;;;;;;;;;;;22.70;42.00;;;;;;6242893;28;19928;-41
2022/01/05 14:11:47;;;;;;;;;;;23.00;42.10;;;;;;6219680;28;19928;-43
2022/01/05 14:14:53;;;;;;;;;;;22.80;42.00;;;;;;6235775;28;19941;-42
2022/01/05 14:17:59;;;;;;;;;;;22.90;42.00;;;;;;6240207;28;20897;-42
2022/01/05 14:21:00;;;;;;;;;;;23.30;42.20;;;;;;6211998;28;19979;-42
2022/01/05 14:24:02;;;;;;;;;;;22.90;42.10;;;;;;6228600;28;19928;-46
2022/01/05 14:27:05;;;;;;;;;;;23.40;42.40;;;;;;6234453;28;20036;-44
2022/01/05 14:30:09;;;;;;;;;;;23.40;42.30;;;;;;6222070;28;19928;-43
2022/01/05 14:33:10;;;;;;;;;;;23.10;42.20;;;;;;6244920;28;21579;-44
2022/01/05 14:36:15;;;;;;;;;;;22.90;42.00;;;;;;6236571;28;19932;-44
2022/01/05 14:39:18;;;;;;;;;;;23.20;42.20;;;;;;6243959;28;20049;-42
2022/01/05 14:42:20;;;;;;;;;;;22.90;42.00;;;;;;6232742;28;19927;-42
2022/01/05 14:45:43;;;;;;;;;;;23.10;42.10;;;;;;6216854;28;20017;-42
2022/01/05 14:48:44;;;;;;;;;;;22.90;42.00;;;;;;6211084;28;19993;-42
2022/01/05 14:51:47;;;;;;;;;;;23.00;42.10;;;;;;6225965;28;20014;-45
2022/01/05 14:54:50;;;;;;;;;;;23.20;42.20;;;;;;6212165;28;20042;-45
2022/01/05 14:57:52;;;;;;;;;;;23.40;42.20;;;;;;6241251;27;19935;-42
2022/01/05 15:00:54;;;;;;;;;;;23.00;42.00;;;;;;6245568;28;19927;-42
2022/01/05 15:03:55;;;;;;;;;;;23.10;42.10;;;;;;6232019;28;19927;-42
2022/01/05 15:06:57;;;;;;;;;;;22.90;42.00;;;;;;6232403;28;19932;-41
2022/01/05 15:09:58;;;;;;;;;;;23.00;42.00;;;;;;6245442;28;19928;-41
2022/01/05 15:13:00;;;;;;;;;;;23.30;42.20;;;;;;6242759;28;20061;-41
2022/01/05 15:16:02;;;;;;;;;;;23.30;42.10;;;;;;6230596;28;19927;-43
2022/01/05 15:19:04;;;;;;;;;;;23.10;42.00;;;;;;6216198;28;19929;-44
2022/01/05 15:22:05;;;;;;;;;;;23.10;42.00;;;;;;6230165;28;19950;-42
2022/01/05 15:25:06;;;;;;;;;;;23.40;42.10;;;;;;6240246;28;19955;-47
2022/01/05 15:28:10;;;;;;;;;;;23.20;42.00;;;;;;6230865;28;19971;-41
2022/01/05 15:31:12;;;;;;;;;;;23.00;41.90;;;;;;6241301;28;20074;-43
2022/01/05 15:34:15;;;;;;;;;;;23.20;42.10;;;;;;6241296;28;21541;-42
2022/01/05 15:37:16;;;;;;;;;;;23.50;42.10;;;;;;6243832;28;19934;-42
2022/01/05 15:40:19;;;;;;;;;;;23.40;42.20;;;;;;6242298;28;19928;-42
2022/01/05 15:43:22;;;;;;;;;;;23.00;41.80;;;;;;6234234;28;19928;-41
2022/01/05 15:46:24;;;;;;;;;;;23.30;42.00;;;;;;6227725;28;20007;-44
2022/01/05 15:49:27;;;;;;;;;;;23.10;42.00;;;;;;6233032;28;19928;-43
2022/01/05 15:52:28;;;;;;;;;;;22.90;41.80;;;;;;6233422;28;19934;-41
2022/01/05 15:55:35;;;;;;;;;;;23.00;41.80;;;;;;6244690;28;21072;-42
2022/01/05 16:01:50;;;;;;;;;;;22.90;41.80;;;;;;6219298;28;20899;-42
2022/01/05 16:04:52;;;;;;;;;;;23.10;41.90;;;;;;6218552;28;20910;-45
2022/01/05 16:07:55;;;;;;;;;;;23.30;42.00;;;;;;6221264;28;19934;-42
2022/01/05 16:10:56;;;;;;;;;;;23.30;41.90;;;;;;6202936;28;19932;-42
2022/01/05 16:13:58;;;;;;;;;;;23.20;41.90;;;;;;6217833;28;19935;-43
2022/01/05 16:16:59;;;;;;;;;;;23.30;41.90;;;;;;6226504;28;19928;-44
2022/01/05 16:20:01;;;;;;;;;;;23.00;41.70;;;;;;6217810;28;19928;-44
2022/01/05 16:23:02;;;;;;;;;;;23.40;42.00;;;;;;6233175;27;20891;-42
2022/01/05 16:26:03;;;;;;;;;;;23.70;42.10;;;;;;6221677;28;19927;-43
2022/01/05 16:29:05;;;;;;;;;;;23.30;41.90;;;;;;6230343;28;19927;-41
2022/01/05 16:32:07;;;;;;;;;;;23.30;41.90;;;;;;6203180;28;19927;-43
2022/01/05 16:35:10;;;;;;;;;;;23.30;42.00;;;;;;6224907;28;19929;-41
2022/01/05 16:38:12;;;;;;;;;;;23.00;41.80;;;;;;6226125;28;20726;-44
2022/01/05 16:41:14;;;;;;;;;;;23.60;42.10;;;;;;6196247;28;19927;-44
2022/01/05 16:44:17;;;;;;;;;;;23.10;41.80;;;;;;6200042;28;19928;-47
2022/01/05 16:47:18;;;;;;;;;;;23.30;42.00;;;;;;6229287;28;20032;-45
2022/01/05 16:50:19;;;;;;;;;;;23.00;41.80;;;;;;6222072;28;25378;-43
2022/01/05 16:53:21;;;;;;;;;;;23.30;41.90;;;;;;6246453;28;20042;-43
2022/01/05 16:56:41;;;;;;;;;;;23.20;41.80;;;;;;6217573;28;19986;-42
2022/01/05 17:02:59;;;;;;;;;;;23.30;41.90;;;;;;6253001;28;21654;-43
2022/01/05 17:06:01;;;;;;;;;;;23.20;41.80;;;;;;6221788;28;20027;-45
2022/01/05 17:09:02;;;;;;;;;;;23.00;41.80;;;;;;6252999;28;19928;-49
2022/01/05 17:12:12;;;;;;;;;;;23.00;41.70;;;;;;6236617;28;19928;-41
2022/01/05 17:15:15;;;;;;;;;;;23.10;41.80;;;;;;6260524;28;19928;-45
2022/01/05 17:18:16;;;;;;;;;;;23.20;41.90;;;;;;6264314;28;19935;-43
2022/01/05 17:21:18;;;;;;;;;;;23.00;41.90;;;;;;6261310;28;19928;-43
2022/01/05 17:24:19;;;;;;;;;;;22.70;41.70;;;;;;6263689;28;19934;-44
2022/01/05 17:27:20;;;;;;;;;;;22.90;41.90;;;;;;6260964;28;19996;-43
2022/01/05 17:30:22;;;;;;;;;;;23.00;41.90;;;;;;6255656;28;19928;-44
2022/01/05 17:33:24;;;;;;;;;;;23.10;42.00;;;;;;6263801;28;19967;-43
2022/01/05 17:36:25;;;;;;;;;;;22.80;41.90;;;;;;6250643;28;20885;-44
2022/01/05 17:39:27;;;;;;;;;;;22.80;41.90;;;;;;6261130;28;19950;-42
2022/01/05 17:42:28;;;;;;;;;;;22.70;41.90;;;;;;6258897;28;19919;-44
2022/01/05 17:45:30;;;;;;;;;;;23.20;42.20;;;;;;6273573;28;19927;-42
2022/01/05 17:48:31;;;;;;;;;;;23.00;42.10;;;;;;6269155;28;20644;-44
2022/01/05 17:51:36;;;;;;;;;;;22.70;42.00;;;;;;6264894;28;19936;-47